createdAt,value
2018-07-28T00:01:01.790Z,96136.00
2018-07-28T00:03:29.740Z,96136.00
2018-07-28T00:05:57.718Z,96132.00
2018-07-28T00:08:25.644Z,96139.00
2018-07-28T00:10:53.577Z,96136.00
2018-07-28T00:13:21.558Z,96136.00
2018-07-28T00:15:49.471Z,96145.00
2018-07-28T00:18:17.446Z,96140.00
2018-07-28T00:20:45.430Z,96143.00
2018-07-28T00:23:13.441Z,96140.00
2018-07-28T00:25:59.492Z,96142.00
2018-07-28T00:28:27.419Z,96135.00
2018-07-28T00:30:55.423Z,96137.00
2018-07-28T00:33:23.346Z,96129.00
2018-07-28T00:35:51.347Z,96130.00
2018-07-28T00:38:19.347Z,96130.00
2018-07-28T00:40:47.277Z,96126.00
2018-07-28T00:43:17.873Z,96130.00
2018-07-28T00:45:45.830Z,96133.00
2018-07-28T00:48:16.668Z,96132.00
2018-07-28T00:50:44.604Z,96124.00
2018-07-28T00:53:12.521Z,96117.00
2018-07-28T00:55:40.480Z,96115.00
2018-07-28T00:58:08.421Z,96115.00
2018-07-28T01:00:36.457Z,96115.00
2018-07-28T01:03:04.456Z,96113.00
2018-07-28T01:05:32.426Z,96115.00
2018-07-28T01:08:00.370Z,96104.00
2018-07-28T01:10:28.407Z,96096.00
2018-07-28T01:12:56.383Z,96090.00
2018-07-28T01:15:24.332Z,96101.00
2018-07-28T01:17:52.287Z,96091.00
2018-07-28T01:20:20.211Z,96098.00
2018-07-28T01:22:48.185Z,96101.00
2018-07-28T01:25:16.130Z,96099.00
2018-07-28T01:27:44.108Z,96103.00
2018-07-28T01:30:31.631Z,96103.00
2018-07-28T01:33:00.268Z,96097.00
2018-07-28T01:35:28.527Z,96086.00
2018-07-28T01:37:56.515Z,96090.00
2018-07-28T01:40:24.491Z,96086.00
2018-07-28T01:42:52.425Z,96087.00
2018-07-28T01:45:22.041Z,96085.00
2018-07-28T01:47:50.010Z,96086.00
2018-07-28T01:50:17.983Z,96083.00
2018-07-28T01:52:45.957Z,96074.00
2018-07-28T01:55:13.860Z,96078.00
2018-07-28T01:57:41.828Z,96072.00
2018-07-28T02:00:09.797Z,96076.00
2018-07-28T02:02:37.734Z,96066.00
2018-07-28T02:05:06.896Z,96061.00
2018-07-28T02:07:34.953Z,96064.00
2018-07-28T02:10:02.947Z,96060.00
2018-07-28T02:12:30.902Z,96060.00
2018-07-28T02:14:58.832Z,96058.00
2018-07-28T02:17:26.808Z,96061.00
2018-07-28T02:19:54.742Z,96063.00
2018-07-28T02:22:22.794Z,96050.00
2018-07-28T02:24:50.751Z,96050.00
2018-07-28T02:27:18.706Z,96043.00
2018-07-28T02:29:46.695Z,96045.00
2018-07-28T02:32:14.657Z,96045.00
2018-07-28T02:34:42.692Z,96048.00
2018-07-28T02:37:10.640Z,96040.00
2018-07-28T02:39:38.650Z,96039.00
2018-07-28T02:42:06.576Z,96034.00
2018-07-28T02:44:34.557Z,96040.00
2018-07-28T02:47:02.557Z,96039.00
2018-07-28T02:49:30.482Z,96044.00
2018-07-28T02:51:58.452Z,96050.00
2018-07-28T02:54:26.518Z,96062.00
2018-07-28T02:56:54.505Z,96066.00
2018-07-28T02:59:22.454Z,96056.00
2018-07-28T03:01:50.395Z,96058.00
2018-07-28T03:04:18.360Z,96061.00
2018-07-28T03:06:46.264Z,96064.00
2018-07-28T03:09:14.241Z,96061.00
2018-07-28T03:11:42.167Z,96062.00
2018-07-28T03:14:10.132Z,96058.00
2018-07-28T03:16:38.044Z,96061.00
2018-07-28T03:19:06.097Z,96054.00
2018-07-28T03:21:34.052Z,96049.00
2018-07-28T03:24:02.029Z,96054.00
2018-07-28T03:26:29.960Z,96053.00
2018-07-28T03:28:57.894Z,96054.00
2018-07-28T03:31:25.840Z,96058.00
2018-07-28T03:33:53.770Z,96061.00
2018-07-28T03:36:21.718Z,96064.00
2018-07-28T03:38:49.675Z,96057.00
2018-07-28T03:41:17.637Z,96067.00
2018-07-28T03:43:45.622Z,96071.00
2018-07-28T03:46:13.622Z,96070.00
2018-07-28T03:48:41.579Z,96073.00
2018-07-28T03:51:09.500Z,96072.00
2018-07-28T03:53:37.504Z,96069.00
2018-07-28T03:56:05.503Z,96070.00
2018-07-28T03:58:33.470Z,96067.00
2018-07-28T04:01:01.394Z,96073.00
2018-07-28T04:03:29.343Z,96068.00
2018-07-28T04:05:57.269Z,96066.00
2018-07-28T04:08:25.208Z,96069.00
2018-07-28T04:10:53.160Z,96072.00
2018-07-28T04:13:21.089Z,96073.00
2018-07-28T04:15:49.073Z,96074.00
2018-07-28T04:18:16.992Z,96071.00
2018-07-28T04:20:44.973Z,96078.00
2018-07-28T04:23:12.933Z,96072.00
2018-07-28T04:25:40.860Z,96072.00
2018-07-28T04:28:08.818Z,96074.00
2018-07-28T04:30:36.808Z,96075.00
2018-07-28T04:33:04.888Z,96085.00
2018-07-28T04:35:32.851Z,96078.00
2018-07-28T04:38:00.798Z,96081.00
2018-07-28T04:40:28.715Z,96081.00
2018-07-28T04:42:56.681Z,96085.00
2018-07-28T04:45:24.620Z,96086.00
2018-07-28T04:47:52.540Z,96077.00
2018-07-28T04:50:20.526Z,96079.00
2018-07-28T04:52:48.463Z,96082.00
2018-07-28T04:55:16.427Z,96087.00
2018-07-28T04:57:44.370Z,96086.00
2018-07-28T05:00:12.283Z,96088.00
2018-07-28T05:02:40.283Z,96089.00
2018-07-28T05:05:08.241Z,96082.00
2018-07-28T05:07:36.317Z,96086.00
2018-07-28T05:10:04.360Z,96090.00
2018-07-28T05:12:32.320Z,96091.00
2018-07-28T05:15:00.285Z,96083.00
2018-07-28T05:17:28.237Z,96083.00
2018-07-28T05:19:56.163Z,96086.00
2018-07-28T05:22:24.152Z,96082.00
2018-07-28T05:24:52.075Z,96088.00
2018-07-28T05:27:19.992Z,96083.00
2018-07-28T05:29:47.965Z,96085.00
2018-07-28T05:32:15.890Z,96089.00
2018-07-28T05:34:43.877Z,96082.00
2018-07-28T05:37:11.854Z,96077.00
2018-07-28T05:39:39.847Z,96091.00
2018-07-28T05:42:07.791Z,96088.00
2018-07-28T05:44:35.736Z,96084.00
2018-07-28T05:47:04.356Z,96089.00
2018-07-28T05:49:32.370Z,96082.00
2018-07-28T05:52:00.309Z,96078.00
2018-07-28T05:54:28.251Z,96079.00
2018-07-28T05:56:56.177Z,96086.00
2018-07-28T05:59:24.144Z,96084.00
2018-07-28T06:01:52.150Z,96103.00
2018-07-28T06:04:20.098Z,96123.00
2018-07-28T06:06:48.075Z,96127.00
2018-07-28T06:09:16.032Z,96121.00
2018-07-28T06:11:44.179Z,96119.00
2018-07-28T06:14:12.158Z,96114.00
2018-07-28T06:16:40.167Z,96123.00
2018-07-28T06:19:08.107Z,96120.00
2018-07-28T06:21:36.115Z,96110.00
2018-07-28T06:24:04.060Z,96105.00
2018-07-28T06:26:32.020Z,96102.00
2018-07-28T06:28:59.956Z,96101.00
2018-07-28T06:31:27.947Z,96098.00
2018-07-28T06:33:55.907Z,96080.00
2018-07-28T06:36:23.941Z,96079.00
2018-07-28T06:38:51.826Z,96081.00
2018-07-28T06:41:19.811Z,96090.00
2018-07-28T06:43:47.755Z,96088.00
2018-07-28T06:46:15.839Z,96092.00
2018-07-28T06:48:43.778Z,96097.00
2018-07-28T06:51:11.768Z,96096.00
2018-07-28T06:53:39.785Z,96097.00
2018-07-28T06:56:07.757Z,96100.00
2018-07-28T06:58:35.710Z,96092.00
2018-07-28T07:01:03.695Z,96090.00
2018-07-28T07:03:31.642Z,96101.00
2018-07-28T07:05:59.583Z,96107.00
2018-07-28T07:08:27.530Z,96118.00
2018-07-28T07:10:55.540Z,96121.00
2018-07-28T07:13:23.526Z,96116.00
2018-07-28T07:15:51.511Z,96115.00
2018-07-28T07:18:19.504Z,96120.00
2018-07-28T07:20:47.519Z,96118.00
2018-07-28T07:23:15.503Z,96124.00
2018-07-28T07:25:43.465Z,96136.00
2018-07-28T07:28:11.442Z,96144.00
2018-07-28T07:30:39.444Z,96154.00
2018-07-28T07:33:07.398Z,96160.00
2018-07-28T07:35:35.308Z,96163.00
2018-07-28T07:38:03.305Z,96183.00
2018-07-28T07:40:31.293Z,96197.00
2018-07-28T07:42:59.231Z,96221.00
2018-07-28T07:45:27.210Z,96230.00
2018-07-28T07:47:55.148Z,96245.00
2018-07-28T07:50:23.130Z,96265.00
2018-07-28T07:52:51.123Z,96278.00
2018-07-28T07:55:19.071Z,96300.00
2018-07-28T07:57:47.044Z,96321.00
2018-07-28T08:00:15.128Z,96347.00
2018-07-28T08:02:43.034Z,96335.00
2018-07-28T08:05:11.006Z,96353.00
2018-07-28T08:07:38.927Z,96350.00
2018-07-28T08:10:06.877Z,96348.00
2018-07-28T08:12:34.904Z,96356.00
2018-07-28T08:15:02.833Z,96336.00
2018-07-28T08:17:30.763Z,96338.00
2018-07-28T08:19:58.719Z,96348.00
2018-07-28T08:22:26.749Z,96344.00
2018-07-28T08:24:54.885Z,96349.00
2018-07-28T08:27:22.967Z,96356.00
2018-07-28T08:29:50.962Z,96358.00
2018-07-28T08:32:18.915Z,96362.00
2018-07-28T08:34:46.879Z,96354.00
2018-07-28T08:37:14.846Z,96363.00
2018-07-28T08:39:42.806Z,96360.00
2018-07-28T08:42:10.789Z,96358.00
2018-07-28T08:44:38.743Z,96352.00
2018-07-28T08:47:06.710Z,96356.00
2018-07-28T08:49:34.718Z,96375.00
2018-07-28T08:52:02.642Z,96372.00
2018-07-28T08:54:30.615Z,96377.00
2018-07-28T08:56:58.520Z,96377.00
2018-07-28T08:59:26.521Z,96382.00
2018-07-28T09:01:54.466Z,96374.00
2018-07-28T09:04:22.455Z,96378.00
2018-07-28T09:06:50.405Z,96388.00
2018-07-28T09:09:18.421Z,96384.00
2018-07-28T09:11:49.822Z,96385.00
2018-07-28T09:14:17.771Z,96385.00
2018-07-28T09:16:45.741Z,96387.00
2018-07-28T09:19:13.693Z,96388.00
2018-07-28T09:21:41.632Z,96383.00
2018-07-28T09:24:09.617Z,96389.00
2018-07-28T09:26:37.570Z,96387.00
2018-07-28T09:29:05.509Z,96382.00
2018-07-28T09:31:33.491Z,96372.00
2018-07-28T09:34:01.431Z,96363.00
2018-07-28T09:36:29.393Z,96377.00
2018-07-28T09:38:57.356Z,96369.00
2018-07-28T09:41:25.280Z,96356.00
2018-07-28T09:43:53.239Z,96350.00
2018-07-28T09:46:21.213Z,96361.00
2018-07-28T09:48:49.183Z,96375.00
2018-07-28T09:51:17.177Z,96375.00
2018-07-28T09:53:45.152Z,96389.00
2018-07-28T09:56:13.114Z,96394.00
2018-07-28T09:58:41.028Z,96383.00
2018-07-28T10:01:21.623Z,96380.00
2018-07-28T10:03:49.713Z,96380.00
2018-07-28T10:06:17.623Z,96380.00
2018-07-28T10:08:45.633Z,96368.00
2018-07-28T10:11:13.696Z,96377.00
2018-07-28T10:13:41.666Z,96368.00
2018-07-28T10:16:09.672Z,96357.00
2018-07-28T10:18:37.704Z,96354.00
2018-07-28T10:21:05.650Z,96369.00
2018-07-28T10:23:33.780Z,96363.00
2018-07-28T10:26:01.803Z,96356.00
2018-07-28T10:28:29.789Z,96357.00
2018-07-28T10:30:57.755Z,96347.00
2018-07-28T10:33:25.707Z,96361.00
2018-07-28T10:35:53.653Z,96346.00
2018-07-28T10:38:21.641Z,96357.00
2018-07-28T10:40:49.618Z,96354.00
2018-07-28T10:43:17.598Z,96361.00
2018-07-28T10:45:45.713Z,96367.00
2018-07-28T10:48:13.501Z,96356.00
2018-07-28T10:50:41.510Z,96349.00
2018-07-28T10:53:09.428Z,96340.00
2018-07-28T10:55:37.506Z,96351.00
2018-07-28T10:58:05.451Z,96347.00
2018-07-28T11:00:33.433Z,96358.00
2018-07-28T11:03:01.367Z,96341.00
2018-07-28T11:05:29.301Z,96328.00
2018-07-28T11:07:57.256Z,96311.00
2018-07-28T11:10:25.240Z,96313.00
2018-07-28T11:12:53.189Z,96318.00
2018-07-28T11:15:21.101Z,96310.00
2018-07-28T11:17:50.220Z,96298.00
2018-07-28T11:20:18.172Z,96335.00
2018-07-28T11:22:46.316Z,96315.00
2018-07-28T11:25:14.278Z,96317.00
2018-07-28T11:27:42.249Z,96308.00
2018-07-28T11:30:10.229Z,96321.00
2018-07-28T11:33:33.346Z,96303.00
2018-07-28T11:36:56.492Z,96294.00
2018-07-28T11:40:19.981Z,96313.00
2018-07-28T11:43:42.837Z,96293.00
2018-07-28T11:46:10.845Z,96329.00
2018-07-28T11:48:39.104Z,96330.00
2018-07-28T11:51:07.228Z,96335.00
2018-07-28T11:53:35.208Z,96335.00
2018-07-28T11:56:03.726Z,96350.00
2018-07-28T11:58:31.816Z,96357.00
2018-07-28T12:00:59.759Z,96370.00
2018-07-28T12:03:27.700Z,96373.00
2018-07-28T12:05:55.664Z,96372.00
2018-07-28T12:08:23.591Z,96381.00
2018-07-28T12:10:51.502Z,96377.00
2018-07-28T12:13:19.474Z,96379.00
2018-07-28T12:15:47.432Z,96372.00
2018-07-28T12:18:15.421Z,96382.00
2018-07-28T12:20:43.392Z,96385.00
2018-07-28T12:23:11.319Z,96384.00
2018-07-28T12:25:39.282Z,96393.00
2018-07-28T12:28:07.234Z,96389.00
2018-07-28T12:30:35.139Z,96382.00
2018-07-28T12:33:03.124Z,96382.00
2018-07-28T12:35:31.055Z,96386.00
2018-07-28T12:37:59.007Z,96394.00
2018-07-28T12:40:26.980Z,96392.00
2018-07-28T12:42:54.984Z,96403.00
2018-07-28T12:45:22.956Z,96411.00
2018-07-28T12:47:50.941Z,96412.00
2018-07-28T12:50:18.888Z,96425.00
2018-07-28T12:52:46.888Z,96417.00
2018-07-28T12:55:14.934Z,96424.00
2018-07-28T12:57:42.794Z,96428.00
2018-07-28T13:00:10.828Z,96428.00
2018-07-28T13:02:38.740Z,96424.00
2018-07-28T13:05:07.615Z,96433.00
2018-07-28T13:07:35.608Z,96422.00
2018-07-28T13:10:04.484Z,96438.00
2018-07-28T13:12:32.418Z,96424.00
2018-07-28T13:15:00.344Z,96426.00
2018-07-28T13:17:28.262Z,96435.00
2018-07-28T13:19:56.173Z,96423.00
2018-07-28T13:22:24.114Z,96412.00
2018-07-28T13:24:52.048Z,96408.00
2018-07-28T13:27:19.975Z,96398.00
2018-07-28T13:29:48.035Z,96400.00
2018-07-28T13:32:15.884Z,96390.00
2018-07-28T13:34:43.879Z,96380.00
2018-07-28T13:37:11.919Z,96376.00
2018-07-28T13:39:39.880Z,96379.00
2018-07-28T13:42:07.844Z,96382.00
2018-07-28T13:44:35.758Z,96376.00
2018-07-28T13:47:03.675Z,96387.00
2018-07-28T13:49:31.597Z,96381.00
2018-07-28T13:51:59.549Z,96392.00
2018-07-28T13:54:27.475Z,96384.00
2018-07-28T13:56:55.401Z,96389.00
2018-07-28T13:59:23.356Z,96400.00
2018-07-28T14:01:51.292Z,96402.00
2018-07-28T14:04:19.214Z,96401.00
2018-07-28T14:06:47.190Z,96401.00
2018-07-28T14:09:15.118Z,96408.00
2018-07-28T14:11:43.055Z,96402.00
2018-07-28T14:14:11.029Z,96409.00
2018-07-28T14:16:38.968Z,96411.00
2018-07-28T14:19:06.895Z,96420.00
2018-07-28T14:21:34.855Z,96423.00
2018-07-28T14:24:02.797Z,96434.00
2018-07-28T14:26:30.719Z,96426.00
2018-07-28T14:28:58.676Z,96424.00
2018-07-28T14:31:26.979Z,96425.00
2018-07-28T14:33:54.925Z,96433.00
2018-07-28T14:36:22.985Z,96420.00
2018-07-28T14:38:50.929Z,96436.00
2018-07-28T14:41:18.853Z,96433.00
2018-07-28T14:43:46.836Z,96443.00
2018-07-28T14:46:14.785Z,96448.00
2018-07-28T14:48:42.728Z,96448.00
2018-07-28T14:51:10.671Z,96455.00
2018-07-28T14:53:38.620Z,96456.00
2018-07-28T14:56:06.900Z,96459.00
2018-07-28T14:58:34.872Z,96464.00
2018-07-28T15:01:02.803Z,96461.00
2018-07-28T15:03:30.716Z,96486.00
2018-07-28T15:05:58.708Z,96461.00
2018-07-28T15:08:26.629Z,96471.00
2018-07-28T15:10:54.563Z,96456.00
2018-07-28T15:13:22.532Z,96461.00
2018-07-28T15:15:50.472Z,96452.00
2018-07-28T15:18:18.391Z,96447.00
2018-07-28T15:20:46.372Z,96443.00
2018-07-28T15:23:14.334Z,96418.00
2018-07-28T15:25:42.283Z,96427.00
2018-07-28T15:28:10.270Z,96437.00
2018-07-28T15:30:38.187Z,96437.00
2018-07-28T15:33:06.115Z,96448.00
2018-07-28T15:35:34.116Z,96432.00
2018-07-28T15:38:02.034Z,96418.00
2018-07-28T15:40:30.025Z,96462.00
2018-07-28T15:42:58.006Z,96459.00
2018-07-28T15:45:25.929Z,96461.00
2018-07-28T15:47:53.948Z,96478.00
2018-07-28T15:50:21.880Z,96478.00
2018-07-28T15:52:49.829Z,96480.00
2018-07-28T15:55:18.684Z,96480.00
2018-07-28T15:57:46.683Z,96473.00
2018-07-28T16:00:17.652Z,96479.00
2018-07-28T16:02:46.669Z,96474.00
2018-07-28T16:05:14.963Z,96487.00
2018-07-28T16:07:42.912Z,96478.00
2018-07-28T16:10:10.844Z,96476.00
2018-07-28T16:12:38.939Z,96484.00
2018-07-28T16:15:06.875Z,96484.00
2018-07-28T16:17:34.936Z,96484.00
2018-07-28T16:20:02.910Z,96492.00
2018-07-28T16:22:30.811Z,96492.00
2018-07-28T16:24:58.803Z,96494.00
2018-07-28T16:27:26.779Z,96499.00
2018-07-28T16:29:54.698Z,96503.00
2018-07-28T16:32:22.661Z,96507.00
2018-07-28T16:34:50.612Z,96517.00
2018-07-28T16:37:18.517Z,96516.00
2018-07-28T16:39:46.525Z,96522.00
2018-07-28T16:42:14.483Z,96526.00
2018-07-28T16:44:42.427Z,96536.00
2018-07-28T16:47:10.585Z,96544.00
2018-07-28T16:49:38.564Z,96537.00
2018-07-28T16:52:06.536Z,96545.00
2018-07-28T16:54:34.444Z,96556.00
2018-07-28T16:57:02.385Z,96558.00
2018-07-28T16:59:30.336Z,96552.00
2018-07-28T17:01:58.290Z,96543.00
2018-07-28T17:04:26.345Z,96533.00
2018-07-28T17:06:54.298Z,96533.00
2018-07-28T17:09:22.299Z,96531.00
2018-07-28T17:11:50.273Z,96542.00
2018-07-28T17:14:18.256Z,96539.00
2018-07-28T17:16:46.214Z,96537.00
2018-07-28T17:19:14.189Z,96546.00
2018-07-28T17:21:42.131Z,96547.00
2018-07-28T17:24:10.047Z,96549.00
2018-07-28T17:26:37.999Z,96553.00
2018-07-28T17:29:06.054Z,96547.00
2018-07-28T17:31:34.008Z,96547.00
2018-07-28T17:34:01.963Z,96544.00
2018-07-28T17:36:29.899Z,96550.00
2018-07-28T17:38:57.813Z,96540.00
2018-07-28T17:41:25.815Z,96540.00
2018-07-28T17:43:53.724Z,96535.00
2018-07-28T17:46:21.657Z,96547.00
2018-07-28T17:48:49.584Z,96553.00
2018-07-28T17:51:17.489Z,96551.00
2018-07-28T17:53:45.413Z,96560.00
2018-07-28T17:56:13.400Z,96564.00
2018-07-28T17:58:41.329Z,96563.00
2018-07-28T18:01:09.272Z,96556.00
2018-07-28T18:03:37.252Z,96550.00
2018-07-28T18:06:06.700Z,96562.00
2018-07-28T18:08:34.680Z,96554.00
2018-07-28T18:11:02.630Z,96556.00
2018-07-28T18:13:30.596Z,96563.00
2018-07-28T18:15:58.533Z,96564.00
2018-07-28T18:18:26.518Z,96566.00
2018-07-28T18:20:54.490Z,96576.00
2018-07-28T18:23:22.426Z,96571.00
2018-07-28T18:25:50.470Z,96576.00
2018-07-28T18:28:18.369Z,96574.00
2018-07-28T18:30:46.332Z,96576.00
2018-07-28T18:33:14.271Z,96566.00
2018-07-28T18:35:42.172Z,96566.00
2018-07-28T18:38:10.112Z,96576.00
2018-07-28T18:40:38.063Z,96574.00
2018-07-28T18:43:06.100Z,96575.00
2018-07-28T18:45:34.041Z,96581.00
2018-07-28T18:48:02.042Z,96573.00
2018-07-28T18:50:30.001Z,96574.00
2018-07-28T18:52:57.922Z,96576.00
2018-07-28T18:55:25.870Z,96583.00
2018-07-28T18:57:53.793Z,96579.00
2018-07-28T19:00:21.841Z,96575.00
2018-07-28T19:02:49.804Z,96585.00
2018-07-28T19:05:17.734Z,96574.00
2018-07-28T19:07:45.742Z,96586.00
2018-07-28T19:10:13.720Z,96592.00
2018-07-28T19:13:00.179Z,96594.00
2018-07-28T19:15:28.144Z,96598.00
2018-07-28T19:18:14.082Z,96605.00
2018-07-28T19:20:42.001Z,96599.00
2018-07-28T19:23:27.916Z,96597.00
2018-07-28T19:25:55.915Z,96597.00
2018-07-28T19:28:42.128Z,96608.00
2018-07-28T19:31:10.072Z,96608.00
2018-07-28T19:33:38.001Z,96613.00
2018-07-28T19:36:24.144Z,96621.00
2018-07-28T19:38:52.056Z,96622.00
2018-07-28T19:41:19.962Z,96630.00
2018-07-28T19:43:47.940Z,96632.00
2018-07-28T19:46:15.880Z,96628.00
2018-07-28T19:48:43.816Z,96628.00
2018-07-28T19:51:11.778Z,96630.00
2018-07-28T19:53:39.688Z,96630.00
2018-07-28T19:56:07.620Z,96630.00
2018-07-28T19:58:35.634Z,96631.00
2018-07-28T20:01:03.595Z,96630.00
2018-07-28T20:03:31.532Z,96638.00
2018-07-28T20:05:59.510Z,96638.00
2018-07-28T20:08:27.435Z,96644.00
2018-07-28T20:10:55.355Z,96634.00
2018-07-28T20:13:23.338Z,96640.00
2018-07-28T20:15:51.255Z,96642.00
2018-07-28T20:18:19.177Z,96642.00
2018-07-28T20:20:47.714Z,96646.00
2018-07-28T20:23:15.636Z,96652.00
2018-07-28T20:25:43.704Z,96656.00
2018-07-28T20:28:11.705Z,96663.00
2018-07-28T20:30:39.646Z,96654.00
2018-07-28T20:33:07.565Z,96660.00
2018-07-28T20:35:35.521Z,96658.00
2018-07-28T20:38:03.436Z,96649.00
2018-07-28T20:40:31.352Z,96648.00
2018-07-28T20:42:59.315Z,96645.00
2018-07-28T20:45:27.264Z,96652.00
2018-07-28T20:47:55.209Z,96656.00
2018-07-28T20:50:23.174Z,96663.00
2018-07-28T20:52:51.134Z,96656.00
2018-07-28T20:55:19.090Z,96661.00
2018-07-28T20:57:47.090Z,96672.00
2018-07-28T21:00:15.050Z,96673.00
2018-07-28T21:02:43.044Z,96663.00
2018-07-28T21:05:11.011Z,96671.00
2018-07-28T21:07:39.090Z,96670.00
2018-07-28T21:10:07.160Z,96667.00
2018-07-28T21:12:35.058Z,96677.00
2018-07-28T21:15:03.029Z,96675.00
2018-07-28T21:17:30.937Z,96681.00
2018-07-28T21:19:58.884Z,96685.00
2018-07-28T21:22:26.844Z,96678.00
2018-07-28T21:24:54.795Z,96672.00
2018-07-28T21:27:22.761Z,96668.00
2018-07-28T21:29:50.716Z,96666.00
2018-07-28T21:32:18.626Z,96667.00
2018-07-28T21:34:46.644Z,96667.00
2018-07-28T21:37:14.548Z,96666.00
2018-07-28T21:39:42.564Z,96679.00
2018-07-28T21:42:10.524Z,96676.00
2018-07-28T21:44:38.491Z,96669.00
2018-07-28T21:47:06.622Z,96671.00
2018-07-28T21:49:34.755Z,96680.00
2018-07-28T21:52:02.698Z,96662.00
2018-07-28T21:54:30.644Z,96665.00
2018-07-28T21:56:58.654Z,96662.00
2018-07-28T21:59:26.586Z,96668.00
2018-07-28T22:01:54.531Z,96674.00
2018-07-28T22:04:27.120Z,96670.00
2018-07-28T22:06:55.064Z,96673.00
2018-07-28T22:09:23.005Z,96677.00
2018-07-28T22:11:50.998Z,96676.00
2018-07-28T22:14:18.923Z,96683.00
2018-07-28T22:16:46.921Z,96693.00
2018-07-28T22:19:14.897Z,96686.00
2018-07-28T22:21:42.806Z,96689.00
2018-07-28T22:24:10.730Z,96699.00
2018-07-28T22:26:38.667Z,96691.00
2018-07-28T22:29:06.611Z,96686.00
2018-07-28T22:31:34.535Z,96685.00
2018-07-28T22:34:02.492Z,96682.00
2018-07-28T22:36:30.405Z,96692.00
2018-07-28T22:38:58.345Z,96683.00
2018-07-28T22:41:26.308Z,96687.00
2018-07-28T22:43:54.230Z,96686.00
2018-07-28T22:46:22.144Z,96693.00
2018-07-28T22:48:50.122Z,96682.00
2018-07-28T22:51:18.045Z,96680.00
2018-07-28T22:53:46.053Z,96675.00
2018-07-28T22:56:14.021Z,96667.00
2018-07-28T22:58:41.964Z,96659.00
2018-07-28T23:01:09.967Z,96671.00
2018-07-28T23:03:37.892Z,96672.00
2018-07-28T23:06:05.900Z,96666.00
2018-07-28T23:08:33.870Z,96675.00
2018-07-28T23:11:01.878Z,96667.00
2018-07-28T23:13:32.427Z,96673.00
2018-07-28T23:16:00.431Z,96670.00
2018-07-28T23:18:28.357Z,96675.00
2018-07-28T23:20:56.277Z,96675.00
2018-07-28T23:23:24.264Z,96677.00
2018-07-28T23:25:52.352Z,96681.00
2018-07-28T23:28:20.388Z,96682.00
2018-07-28T23:30:48.387Z,96685.00
2018-07-28T23:33:16.323Z,96688.00
2018-07-28T23:35:44.335Z,96691.00
2018-07-28T23:38:12.329Z,96688.00
2018-07-28T23:40:40.322Z,96688.00
2018-07-28T23:43:08.261Z,96695.00
2018-07-28T23:45:36.232Z,96695.00
2018-07-28T23:48:04.175Z,96693.00
2018-07-28T23:50:32.159Z,96698.00
2018-07-28T23:53:00.108Z,96695.00
2018-07-28T23:55:28.065Z,96694.00
2018-07-28T23:57:55.989Z,96699.00
